Time,TemperatureF,DewpointF,PressureIn,WindDirection,WindDirectionDegrees,WindSpeedMPH,WindSpeedGustMPH,Humidity,HourlyPrecipIn,Conditions,Clouds,dailyrainin,SoftwareType,DateUTC
2013-04-26 00:03:00,47.3,43.3,30.11,North,-999,-999.0,-999.0,86,0.00,,,0.00,meteohub,2013-04-26 07:03:00,
2013-04-26 00:08:00,46.9,43.3,30.11,North,-999,-999.0,-999.0,87,0.00,,,0.00,meteohub,2013-04-26 07:08:00,
2013-04-26 00:13:00,46.9,43.3,30.11,North,-999,-999.0,-999.0,87,0.00,,,0.00,meteohub,2013-04-26 07:13:00,
2013-04-26 00:18:00,46.6,43.0,30.11,North,-999,-999.0,-999.0,87,0.00,,,0.00,meteohub,2013-04-26 07:18:00,
2013-04-26 00:23:00,49.1,45.7,30.12,North,-999,-999.0,-999.0,88,0.00,,,0.00,meteohub,2013-04-26 07:23:00,
2013-04-26 00:28:00,48.9,45.9,30.12,North,-999,-999.0,-999.0,89,0.00,,,0.00,meteohub,2013-04-26 07:28:00,
2013-04-26 00:33:00,48.9,45.9,30.12,North,-999,-999.0,-999.0,89,0.00,,,0.00,meteohub,2013-04-26 07:33:00,
2013-04-26 00:38:00,48.7,45.7,30.12,North,-999,-999.0,-999.0,89,0.00,,,0.00,meteohub,2013-04-26 07:38:00,
2013-04-26 00:43:00,48.6,45.7,30.12,North,-999,-999.0,-999.0,90,0.00,,,0.00,meteohub,2013-04-26 07:43:00,
2013-04-26 00:48:00,48.4,45.5,30.12,North,-999,-999.0,-999.0,90,0.00,,,0.00,meteohub,2013-04-26 07:48:00,
2013-04-26 00:53:00,48.4,45.9,30.13,North,-999,-999.0,-999.0,91,0.00,,,0.00,meteohub,2013-04-26 07:53:00,
2013-04-26 00:58:00,48.2,46.0,30.13,North,-999,-999.0,-999.0,92,0.00,,,0.00,meteohub,2013-04-26 07:58:00,
2013-04-26 01:03:00,48.0,45.9,30.13,North,-999,-999.0,-999.0,92,0.00,,,0.00,meteohub,2013-04-26 08:03:00,
2013-04-26 01:08:00,46.6,44.6,30.13,North,0,0.0,-999.0,93,0.00,,,0.00,meteohub,2013-04-26 08:08:00,
2013-04-26 01:13:00,45.9,43.9,30.13,North,0,0.0,0.0,93,0.00,,,0.00,meteohub,2013-04-26 08:13:00,
2013-04-26 01:18:00,46.0,44.1,30.13,North,0,0.0,0.0,93,0.00,,,0.00,meteohub,2013-04-26 08:18:00,
2013-04-26 01:23:00,45.9,44.2,30.14,North,0,0.0,0.0,94,0.00,,,0.00,meteohub,2013-04-26 08:23:00,
2013-04-26 01:28:00,45.7,44.4,30.14,North,0,0.0,0.0,95,0.00,,,0.00,meteohub,2013-04-26 08:28:00,
2013-04-26 01:33:00,45.5,44.2,30.14,North,0,0.0,0.0,95,0.00,,,0.00,meteohub,2013-04-26 08:33:00,
2013-04-26 01:38:00,45.3,44.1,30.13,North,0,0.0,0.0,95,0.00,,,0.00,meteohub,2013-04-26 08:38:00,
2013-04-26 01:43:00,45.1,44.1,30.13,North,0,0.0,0.0,96,0.00,,,0.00,meteohub,2013-04-26 08:43:00,
2013-04-26 01:49:00,45.0,44.2,30.13,North,0,0.0,0.0,97,0.00,,,0.00,meteohub,2013-04-26 08:49:00,
2013-04-26 01:54:00,44.6,43.9,30.13,North,0,0.0,0.0,97,0.00,,,0.00,meteohub,2013-04-26 08:54:00,
2013-04-26 01:59:00,44.8,44.1,30.13,North,0,0.0,0.0,97,0.00,,,0.00,meteohub,2013-04-26 08:59:00,
2013-04-26 02:04:00,44.8,44.2,30.14,North,0,0.0,0.0,98,0.00,,,0.00,meteohub,2013-04-26 09:04:00,
2013-04-26 02:09:00,44.2,43.7,30.14,North,0,0.0,0.0,98,0.00,,,0.00,meteohub,2013-04-26 09:09:00,
2013-04-26 02:14:00,44.1,43.9,30.14,North,0,0.0,0.0,99,0.00,,,0.00,meteohub,2013-04-26 09:14:00,
2013-04-26 02:19:00,43.7,43.5,30.14,North,0,0.0,0.0,99,0.00,,,0.00,meteohub,2013-04-26 09:19:00,
2013-04-26 02:24:00,43.7,43.5,30.14,North,0,0.0,0.0,99,0.00,,,0.00,meteohub,2013-04-26 09:24:00,
2013-04-26 02:29:00,43.5,43.3,30.15,North,0,0.0,0.0,99,0.00,,,0.00,meteohub,2013-04-26 09:29:00,
2013-04-26 02:34:00,43.3,43.2,30.15,North,0,0.0,0.0,99,0.00,,,0.00,meteohub,2013-04-26 09:34:00,
2013-04-26 02:39:00,44.4,44.2,30.15,West,270,0.0,0.0,99,0.00,,,0.00,meteohub,2013-04-26 09:39:00,
2013-04-26 02:44:00,44.4,44.2,30.14,West,270,0.0,0.0,99,0.00,,,0.00,meteohub,2013-04-26 09:44:00,
2013-04-26 02:49:00,44.1,43.9,30.14,West,270,0.0,0.0,99,0.00,,,0.00,meteohub,2013-04-26 09:49:00,
2013-04-26 02:54:00,44.1,43.9,30.15,West,270,0.0,0.0,99,0.00,,,0.00,meteohub,2013-04-26 09:54:00,
2013-04-26 02:59:00,44.1,43.9,30.15,West,270,0.0,0.0,99,0.00,,,0.00,meteohub,2013-04-26 09:59:00,
2013-04-26 03:04:00,43.9,43.7,30.15,West,270,0.0,0.0,99,0.00,,,0.00,meteohub,2013-04-26 10:04:00,
2013-04-26 03:09:00,43.9,43.7,30.16,West,270,0.0,0.0,99,0.00,,,0.00,meteohub,2013-04-26 10:09:00,
2013-04-26 03:14:00,43.7,43.5,30.16,West,270,0.0,0.0,99,0.00,,,0.00,meteohub,2013-04-26 10:14:00,
2013-04-26 03:19:00,43.7,43.5,30.16,West,270,0.0,0.0,99,0.00,,,0.00,meteohub,2013-04-26 10:19:00,
2013-04-26 03:24:00,43.7,43.5,30.17,West,270,0.0,0.0,99,0.00,,,0.00,meteohub,2013-04-26 10:24:00,
2013-04-26 03:29:00,43.7,43.5,30.17,West,270,0.0,0.0,99,0.00,,,0.00,meteohub,2013-04-26 10:29:00,
2013-04-26 03:34:00,43.3,43.2,30.17,West,270,0.0,0.0,99,0.00,,,0.00,meteohub,2013-04-26 10:34:00,
2013-04-26 03:39:00,43.5,43.3,30.17,West,270,0.0,0.0,99,0.00,,,0.00,meteohub,2013-04-26 10:39:00,
2013-04-26 03:44:00,43.7,43.5,30.17,West,270,0.0,0.0,99,0.00,,,0.00,meteohub,2013-04-26 10:44:00,
2013-04-26 03:49:00,43.2,43.0,30.16,West,270,0.0,0.0,99,0.00,,,0.00,meteohub,2013-04-26 10:49:00,
2013-04-26 03:54:00,43.3,43.2,30.16,West,270,0.0,0.0,99,0.00,,,0.00,meteohub,2013-04-26 10:54:00,
2013-04-26 03:59:00,43.2,43.0,30.17,West,270,0.0,0.0,99,0.00,,,0.00,meteohub,2013-04-26 10:59:00,
2013-04-26 04:04:00,43.2,43.0,30.17,West,270,0.0,0.0,99,0.00,,,0.00,meteohub,2013-04-26 11:04:00,
2013-04-26 04:09:00,43.2,43.0,30.17,West,270,0.0,0.0,99,0.00,,,0.00,meteohub,2013-04-26 11:09:00,
2013-04-26 04:14:00,43.0,42.8,30.16,West,270,0.0,0.0,99,0.00,,,0.00,meteohub,2013-04-26 11:14:00,
2013-04-26 04:19:00,43.0,42.8,30.17,West,270,0.0,0.0,99,0.00,,,0.00,meteohub,2013-04-26 11:19:00,
2013-04-26 04:24:00,43.0,42.8,30.17,West,270,0.0,0.0,99,0.00,,,0.00,meteohub,2013-04-26 11:24:00,
2013-04-26 04:29:00,43.0,42.8,30.17,West,270,0.0,0.0,99,0.00,,,0.00,meteohub,2013-04-26 11:29:00,
2013-04-26 04:34:00,43.2,43.0,30.17,West,270,0.0,0.0,99,0.00,,,0.00,meteohub,2013-04-26 11:34:00,
2013-04-26 04:39:00,43.0,42.8,30.17,West,270,0.0,0.0,99,0.00,,,0.00,meteohub,2013-04-26 11:39:00,
2013-04-26 04:44:00,43.0,42.8,30.17,West,270,0.0,0.0,99,0.00,,,0.00,meteohub,2013-04-26 11:44:00,
2013-04-26 04:49:00,43.2,43.0,30.17,West,270,0.0,0.0,99,0.00,,,0.00,meteohub,2013-04-26 11:49:00,
2013-04-26 04:54:00,43.2,43.0,30.17,West,270,0.0,0.0,99,0.00,,,0.00,meteohub,2013-04-26 11:54:00,
2013-04-26 04:59:00,43.2,43.0,30.16,West,270,0.0,0.0,99,0.00,,,0.00,meteohub,2013-04-26 11:59:00,
2013-04-26 05:04:00,43.2,43.0,30.16,West,270,0.0,0.0,99,0.00,,,0.00,meteohub,2013-04-26 12:04:00,
2013-04-26 05:09:00,40.3,40.1,30.17,South,180,0.0,0.0,99,0.00,,,0.00,meteohub,2013-04-26 12:09:00,
2013-04-26 05:14:00,43.3,43.2,30.17,West,270,0.0,0.0,99,0.00,,,0.00,meteohub,2013-04-26 12:14:00,
2013-04-26 05:19:00,43.3,43.2,30.17,West,270,0.0,0.0,99,0.00,,,0.00,meteohub,2013-04-26 12:19:00,
2013-04-26 05:24:00,43.2,43.0,30.17,West,270,0.0,0.0,99,0.00,,,0.00,meteohub,2013-04-26 12:24:00,
2013-04-26 05:29:00,43.2,43.0,30.17,West,270,0.0,0.0,99,0.00,,,0.00,meteohub,2013-04-26 12:29:00,
2013-04-26 05:34:00,43.2,43.0,30.17,West,270,0.0,0.0,99,0.00,,,0.00,meteohub,2013-04-26 12:34:00,
2013-04-26 05:39:00,43.0,42.8,30.17,West,270,0.0,0.0,99,0.00,,,0.00,meteohub,2013-04-26 12:39:00,
2013-04-26 05:44:00,42.8,42.6,30.17,West,270,0.0,0.0,99,0.00,,,0.00,meteohub,2013-04-26 12:44:00,
2013-04-26 05:49:00,42.8,42.6,30.17,West,270,0.0,0.0,99,0.00,,,0.00,meteohub,2013-04-26 12:49:00,
2013-04-26 05:54:00,42.8,42.6,30.17,West,270,0.0,0.0,99,0.00,,,0.00,meteohub,2013-04-26 12:54:00,
2013-04-26 05:59:00,42.6,42.4,30.17,West,270,0.0,0.0,99,0.00,,,0.00,meteohub,2013-04-26 12:59:00,
2013-04-26 06:05:00,42.4,42.3,30.17,West,270,0.0,0.0,99,0.00,,,0.00,meteohub,2013-04-26 13:05:00,
2013-04-26 06:10:00,42.3,42.1,30.17,West,270,0.0,0.0,99,0.00,,,0.00,meteohub,2013-04-26 13:10:00,
2013-04-26 06:15:00,42.4,42.3,30.17,West,270,0.0,0.0,99,0.00,,,0.00,meteohub,2013-04-26 13:15:00,
2013-04-26 06:20:00,42.6,42.4,30.17,West,270,0.0,0.0,99,0.00,,,0.00,meteohub,2013-04-26 13:20:00,
2013-04-26 06:25:00,43.0,42.8,30.17,West,270,0.0,0.0,99,0.00,,,0.00,meteohub,2013-04-26 13:25:00,
2013-04-26 06:30:00,43.3,43.2,30.17,West,270,0.0,0.0,99,0.00,,,0.00,meteohub,2013-04-26 13:30:00,
2013-04-26 06:34:00,43.7,43.5,30.18,West,270,0.0,0.0,99,0.00,,,0.00,meteohub,2013-04-26 13:34:00,
2013-04-26 06:39:00,41.9,41.7,30.18,West,270,0.0,0.0,99,0.00,,,0.00,meteohub,2013-04-26 13:39:00,
2013-04-26 06:44:00,42.6,42.4,30.18,North,-999,-999.0,0.0,99,0.00,,,0.00,meteohub,2013-04-26 13:44:00,
2013-04-26 06:49:00,43.3,43.2,30.18,North,-999,-999.0,0.0,99,0.00,,,0.00,meteohub,2013-04-26 13:49:00,
2013-04-26 06:55:00,43.9,43.7,30.18,North,-999,-999.0,0.0,99,0.00,,,0.00,meteohub,2013-04-26 13:55:00,
2013-04-26 06:59:00,43.2,43.0,30.18,ENE,68,0.0,-999.0,99,0.00,,,0.00,meteohub,2013-04-26 13:59:00,
2013-04-26 07:04:00,43.9,43.7,30.18,South,180,0.0,0.0,99,0.00,,,0.00,meteohub,2013-04-26 14:04:00,
2013-04-26 07:09:00,53.2,52.9,30.18,SE,135,2.0,0.0,99,0.00,,,0.00,meteohub,2013-04-26 14:09:00,
2013-04-26 07:14:00,45.0,44.8,30.18,WSW,248,0.0,0.0,99,0.00,,,0.00,meteohub,2013-04-26 14:14:00,
2013-04-26 07:20:00,48.2,48.0,30.19,North,0,2.0,2.0,99,0.00,,,0.00,meteohub,2013-04-26 14:20:00,
2013-04-26 07:25:00,53.4,53.1,30.19,North,-999,-999.0,2.0,99,0.00,,,0.00,meteohub,2013-04-26 14:25:00,
2013-04-26 07:48:00,47.3,47.1,30.20,West,270,0.0,2.0,99,0.00,,,0.00,meteohub,2013-04-26 14:48:00,
2013-04-26 07:53:00,44.4,44.2,30.21,ENE,68,0.0,1.0,99,0.00,,,0.00,meteohub,2013-04-26 14:53:00,
2013-04-26 07:58:00,43.9,43.7,30.20,ENE,68,0.0,2.0,99,0.00,,,0.00,meteohub,2013-04-26 14:58:00,
2013-04-26 08:03:00,48.9,48.7,30.20,WSW,248,0.0,2.0,99,0.00,,,0.00,meteohub,2013-04-26 15:03:00,
2013-04-26 08:08:00,53.8,53.4,30.21,SW,225,3.0,3.0,99,0.00,,,0.00,meteohub,2013-04-26 15:08:00,
2013-04-26 08:13:00,44.2,44.1,30.20,SSW,203,1.0,3.0,99,0.00,,,0.00,meteohub,2013-04-26 15:13:00,
2013-04-26 08:18:00,46.4,46.2,30.21,WSW,248,1.0,3.0,99,0.00,,,0.00,meteohub,2013-04-26 15:18:00,
2013-04-26 08:23:00,48.6,48.4,30.20,West,270,2.0,3.0,99,0.00,,,0.00,meteohub,2013-04-26 15:23:00,
2013-04-26 08:28:00,46.6,46.4,30.20,WSW,248,2.0,2.0,99,0.00,,,0.00,meteohub,2013-04-26 15:28:00,
2013-04-26 08:33:00,47.7,47.5,30.20,WSW,248,0.0,2.0,99,0.00,,,0.00,meteohub,2013-04-26 15:33:00,
2013-04-26 08:38:00,46.8,46.6,30.21,WSW,248,1.0,2.0,99,0.00,,,0.00,meteohub,2013-04-26 15:38:00,
2013-04-26 08:43:00,44.1,43.9,30.21,WSW,248,2.0,2.0,99,0.00,,,0.00,meteohub,2013-04-26 15:43:00,
2013-04-26 08:48:00,48.0,47.8,30.21,WSW,248,1.0,2.0,99,0.00,,,0.00,meteohub,2013-04-26 15:48:00,
2013-04-26 08:53:00,49.3,49.1,30.21,North,0,1.0,2.0,99,0.00,,,0.00,meteohub,2013-04-26 15:53:00,
2013-04-26 08:58:00,50.9,50.5,30.21,WSW,248,1.0,2.0,99,0.00,,,0.00,meteohub,2013-04-26 15:58:00,
2013-04-26 09:03:00,50.5,50.2,30.21,West,270,2.0,2.0,99,0.00,,,0.00,meteohub,2013-04-26 16:03:00,
2013-04-26 09:08:00,48.6,48.0,30.21,WSW,248,2.0,2.0,98,0.00,,,0.00,meteohub,2013-04-26 16:08:00,
2013-04-26 09:13:00,56.5,55.4,30.21,South,180,2.0,3.0,96,0.00,,,0.00,meteohub,2013-04-26 16:13:00,
2013-04-26 09:18:00,49.8,48.7,30.21,WSW,248,1.0,3.0,96,0.00,,,0.00,meteohub,2013-04-26 16:18:00,
2013-04-26 09:23:00,52.7,51.1,30.21,West,270,0.0,2.0,94,0.00,,,0.00,meteohub,2013-04-26 16:23:00,
2013-04-26 09:28:00,57.9,55.6,30.21,SE,135,2.0,2.0,92,0.00,,,0.00,meteohub,2013-04-26 16:28:00,
2013-04-26 09:33:00,53.4,50.2,30.21,West,270,2.0,2.0,89,0.00,,,0.00,meteohub,2013-04-26 16:33:00,
2013-04-26 09:38:00,58.8,55.6,30.21,South,180,2.0,2.0,89,0.00,,,0.00,meteohub,2013-04-26 16:38:00,
2013-04-26 09:43:00,52.3,48.9,30.21,WSW,248,1.0,2.0,88,0.00,,,0.00,meteohub,2013-04-26 16:43:00,
2013-04-26 09:48:00,55.0,50.9,30.20,West,270,2.0,2.0,86,0.00,,,0.00,meteohub,2013-04-26 16:48:00,
2013-04-26 09:53:00,56.7,52.5,30.20,WSW,248,2.0,2.0,86,0.00,,,0.00,meteohub,2013-04-26 16:53:00,
2013-04-26 09:59:00,53.2,48.9,30.20,SSW,203,2.0,2.0,85,0.00,,,0.00,meteohub,2013-04-26 16:59:00,
2013-04-26 10:04:00,61.2,55.9,30.20,South,180,2.0,3.0,83,0.00,,,0.00,meteohub,2013-04-26 17:04:00,
2013-04-26 10:09:00,65.7,59.0,30.20,SSW,203,4.0,4.0,79,0.00,,,0.00,meteohub,2013-04-26 17:09:00,
2013-04-26 10:14:00,65.3,59.0,30.21,South,180,3.0,3.0,80,0.00,,,0.00,meteohub,2013-04-26 17:14:00,
2013-04-26 10:19:00,57.9,51.4,30.21,West,270,2.0,4.0,79,0.00,,,0.00,meteohub,2013-04-26 17:19:00,
2013-04-26 10:24:00,56.3,50.2,30.21,WSW,248,1.0,4.0,80,0.00,,,0.00,meteohub,2013-04-26 17:24:00,
2013-04-26 10:29:00,58.5,51.3,30.21,West,270,2.0,3.0,77,0.00,,,0.00,meteohub,2013-04-26 17:29:00,
2013-04-26 10:34:00,59.0,51.8,30.21,West,270,2.0,2.0,77,0.00,,,0.00,meteohub,2013-04-26 17:34:00,
2013-04-26 10:39:00,59.9,52.0,30.20,ENE,68,1.0,2.0,75,0.00,,,0.00,meteohub,2013-04-26 17:39:00,
2013-04-26 10:44:00,60.3,52.7,30.21,NNW,338,1.0,3.0,76,0.00,,,0.00,meteohub,2013-04-26 17:44:00,
2013-04-26 10:51:00,65.7,54.9,30.21,WSW,248,1.0,3.0,68,0.00,,,0.00,meteohub,2013-04-26 17:51:00,
2013-04-26 10:56:00,63.7,51.6,30.21,West,270,1.0,2.0,65,0.00,,,0.00,meteohub,2013-04-26 17:56:00,
2013-04-26 11:01:00,62.8,50.0,30.21,SSW,203,1.0,2.0,63,0.00,,,0.00,meteohub,2013-04-26 18:01:00,
2013-04-26 11:06:00,64.4,50.7,30.21,West,270,2.0,2.0,61,0.00,,,0.00,meteohub,2013-04-26 18:06:00,
2013-04-26 11:11:00,64.0,48.9,30.21,SE,135,2.0,2.0,58,0.00,,,0.00,meteohub,2013-04-26 18:11:00,
2013-04-26 11:16:00,67.6,53.2,30.21,South,180,2.0,3.0,60,0.00,,,0.00,meteohub,2013-04-26 18:16:00,
2013-04-26 11:21:00,66.0,52.7,30.22,West,270,1.0,3.0,62,0.00,,,0.00,meteohub,2013-04-26 18:21:00,
2013-04-26 11:26:00,66.7,51.4,30.22,West,270,2.0,3.0,58,0.00,,,0.00,meteohub,2013-04-26 18:26:00,
2013-04-26 11:31:00,64.8,49.6,30.22,SE,135,2.0,2.0,58,0.00,,,0.00,meteohub,2013-04-26 18:31:00,
2013-04-26 11:36:00,68.5,53.6,30.22,South,180,2.0,2.0,59,0.00,,,0.00,meteohub,2013-04-26 18:36:00,
2013-04-26 11:41:00,67.1,53.2,30.22,West,270,1.0,2.0,61,0.00,,,0.00,meteohub,2013-04-26 18:41:00,
2013-04-26 11:46:00,75.0,57.2,30.22,North,0,2.0,2.0,54,0.00,,,0.00,meteohub,2013-04-26 18:46:00,
2013-04-26 11:51:00,70.5,54.1,30.22,West,270,2.0,2.0,56,0.00,,,0.00,meteohub,2013-04-26 18:51:00,
2013-04-26 11:56:00,69.1,52.7,30.22,West,270,1.0,2.0,56,0.00,,,0.00,meteohub,2013-04-26 18:56:00,
2013-04-26 12:01:00,68.4,52.0,30.22,West,270,1.0,2.0,56,0.00,,,0.00,meteohub,2013-04-26 19:01:00,
2013-04-26 12:06:00,68.2,51.4,30.22,SE,135,2.0,2.0,55,0.00,,,0.00,meteohub,2013-04-26 19:06:00,
2013-04-26 12:11:00,68.7,52.9,30.22,West,270,1.0,2.0,57,0.00,,,0.00,meteohub,2013-04-26 19:11:00,
2013-04-26 12:16:00,70.7,53.8,30.21,SW,225,2.0,2.0,55,0.00,,,0.00,meteohub,2013-04-26 19:16:00,
2013-04-26 12:21:00,69.6,53.2,30.21,West,270,1.0,2.0,56,0.00,,,0.00,meteohub,2013-04-26 19:21:00,
2013-04-26 12:26:00,69.6,52.7,30.22,South,180,1.0,2.0,55,0.00,,,0.00,meteohub,2013-04-26 19:26:00,
2013-04-26 12:31:00,71.4,53.4,30.21,West,270,1.0,3.0,53,0.00,,,0.00,meteohub,2013-04-26 19:31:00,
2013-04-26 12:36:00,71.4,52.9,30.21,WSW,248,1.0,3.0,52,0.00,,,0.00,meteohub,2013-04-26 19:36:00,
2013-04-26 12:41:00,73.6,54.9,30.21,SE,135,2.0,3.0,52,0.00,,,0.00,meteohub,2013-04-26 19:41:00,
2013-04-26 12:46:00,73.9,53.6,30.21,SW,225,2.0,3.0,49,0.00,,,0.00,meteohub,2013-04-26 19:46:00,
2013-04-26 12:51:00,73.8,52.9,30.21,North,0,1.0,2.0,48,0.00,,,0.00,meteohub,2013-04-26 19:51:00,
2013-04-26 12:56:00,74.3,53.4,30.21,SW,225,1.0,2.0,48,0.00,,,0.00,meteohub,2013-04-26 19:56:00,
2013-04-26 13:01:00,74.8,53.2,30.21,South,180,3.0,3.0,47,0.00,,,0.00,meteohub,2013-04-26 20:01:00,
2013-04-26 13:06:00,73.8,51.1,30.21,SE,135,2.0,3.0,45,0.00,,,0.00,meteohub,2013-04-26 20:06:00,
2013-04-26 13:11:00,73.0,51.6,30.21,North,0,2.0,3.0,47,0.00,,,0.00,meteohub,2013-04-26 20:11:00,
2013-04-26 13:16:00,68.2,45.5,30.22,SE,135,3.0,3.0,44,0.00,,,0.00,meteohub,2013-04-26 20:16:00,
2013-04-26 13:21:00,74.1,51.4,30.22,WSW,248,2.0,3.0,45,0.00,,,0.00,meteohub,2013-04-26 20:21:00,
2013-04-26 13:26:00,73.6,50.4,30.21,WSW,248,4.0,4.0,44,0.00,,,0.00,meteohub,2013-04-26 20:26:00,
2013-04-26 13:32:00,73.8,49.8,30.22,ENE,68,3.0,4.0,43,0.00,,,0.00,meteohub,2013-04-26 20:32:00,
2013-04-26 13:37:00,65.5,43.0,30.22,SSW,203,4.0,4.0,44,0.00,,,0.00,meteohub,2013-04-26 20:37:00,
2013-04-26 13:42:00,73.4,50.7,30.21,SSW,203,4.0,7.0,45,0.00,,,0.00,meteohub,2013-04-26 20:42:00,
2013-04-26 13:47:00,73.8,51.6,30.22,SSW,203,2.0,7.0,46,0.00,,,0.00,meteohub,2013-04-26 20:47:00,
2013-04-26 13:52:00,73.8,51.6,30.21,West,270,1.0,7.0,46,0.00,,,0.00,meteohub,2013-04-26 20:52:00,
2013-04-26 13:57:00,72.7,51.3,30.21,West,270,1.0,4.0,47,0.00,,,0.00,meteohub,2013-04-26 20:57:00,
2013-04-26 14:02:00,72.1,50.2,30.21,WSW,248,2.0,5.0,46,0.00,,,0.00,meteohub,2013-04-26 21:02:00,
2013-04-26 14:07:00,72.3,50.9,30.22,West,270,2.0,5.0,47,0.00,,,0.00,meteohub,2013-04-26 21:07:00,
2013-04-26 14:12:00,72.0,51.3,30.22,SSW,203,2.0,5.0,48,0.00,,,0.00,meteohub,2013-04-26 21:12:00,
2013-04-26 14:17:00,73.9,51.8,30.21,West,270,2.0,4.0,46,0.00,,,0.00,meteohub,2013-04-26 21:17:00,
2013-04-26 14:22:00,74.8,51.4,30.21,SW,225,2.0,3.0,44,0.00,,,0.00,meteohub,2013-04-26 21:22:00,
2013-04-26 14:27:00,73.6,50.9,30.21,SSW,203,3.0,3.0,45,0.00,,,0.00,meteohub,2013-04-26 21:27:00,
2013-04-26 14:32:00,74.3,50.9,30.21,West,270,2.0,3.0,44,0.00,,,0.00,meteohub,2013-04-26 21:32:00,
2013-04-26 14:37:00,74.3,51.6,30.21,West,270,2.0,3.0,45,0.00,,,0.00,meteohub,2013-04-26 21:37:00,
2013-04-26 14:42:00,73.2,51.3,30.21,West,270,1.0,3.0,46,0.00,,,0.00,meteohub,2013-04-26 21:42:00,
2013-04-26 14:47:00,73.0,51.6,30.21,West,270,1.0,2.0,47,0.00,,,0.00,meteohub,2013-04-26 21:47:00,
2013-04-26 14:52:00,74.1,53.2,30.21,SE,135,2.0,2.0,48,0.00,,,0.00,meteohub,2013-04-26 21:52:00,
2013-04-26 14:57:00,72.5,51.1,30.21,West,270,1.0,4.0,47,0.00,,,0.00,meteohub,2013-04-26 21:57:00,
2013-04-26 15:02:00,70.7,50.5,30.21,ENE,68,2.0,5.0,49,0.00,,,0.00,meteohub,2013-04-26 22:02:00,
2013-04-26 15:07:00,71.4,52.3,30.21,SW,225,2.0,5.0,51,0.00,,,0.00,meteohub,2013-04-26 22:07:00,
2013-04-26 15:12:00,72.0,51.3,30.20,West,270,1.0,5.0,48,0.00,,,0.00,meteohub,2013-04-26 22:12:00,
2013-04-26 15:17:00,71.4,50.7,30.20,North,0,2.0,3.0,48,0.00,,,0.00,meteohub,2013-04-26 22:17:00,
2013-04-26 15:22:00,71.4,51.3,30.20,North,0,2.0,3.0,49,0.00,,,0.00,meteohub,2013-04-26 22:22:00,
2013-04-26 15:27:00,71.8,51.6,30.20,North,0,2.0,2.0,49,0.00,,,0.00,meteohub,2013-04-26 22:27:00,
2013-04-26 15:32:00,63.5,44.6,30.19,South,180,2.0,2.0,50,0.00,,,0.00,meteohub,2013-04-26 22:32:00,
2013-04-26 15:37:00,70.3,51.4,30.19,WSW,248,2.0,3.0,51,0.00,,,0.00,meteohub,2013-04-26 22:37:00,
2013-04-26 15:42:00,69.1,51.3,30.19,WSW,248,1.0,3.0,53,0.00,,,0.00,meteohub,2013-04-26 22:42:00,
2013-04-26 15:47:00,69.1,51.8,30.19,WNW,293,3.0,4.0,54,0.00,,,0.00,meteohub,2013-04-26 22:47:00,
2013-04-26 15:52:00,68.5,51.3,30.19,North,0,0.0,4.0,54,0.00,,,0.00,meteohub,2013-04-26 22:52:00,
2013-04-26 15:57:00,70.3,53.4,30.19,West,270,1.0,4.0,55,0.00,,,0.00,meteohub,2013-04-26 22:57:00,
2013-04-26 16:02:00,69.3,52.3,30.19,West,270,2.0,4.0,55,0.00,,,0.00,meteohub,2013-04-26 23:02:00,
2013-04-26 16:07:00,68.2,51.8,30.19,West,270,2.0,4.0,56,0.00,,,0.00,meteohub,2013-04-26 23:07:00,
2013-04-26 16:12:00,68.5,51.8,30.18,WSW,248,0.0,4.0,55,0.00,,,0.00,meteohub,2013-04-26 23:12:00,
2013-04-26 16:17:00,68.5,52.7,30.18,West,270,2.0,4.0,57,0.00,,,0.00,meteohub,2013-04-26 23:17:00,
2013-04-26 16:22:00,70.2,54.1,30.18,SSW,203,1.0,2.0,57,0.00,,,0.00,meteohub,2013-04-26 23:22:00,
2013-04-26 16:27:00,68.9,52.0,30.18,SSW,203,2.0,2.0,55,0.00,,,0.00,meteohub,2013-04-26 23:27:00,
2013-04-26 16:32:00,68.2,52.3,30.18,North,0,2.0,2.0,57,0.00,,,0.00,meteohub,2013-04-26 23:32:00,
2013-04-26 16:37:00,67.5,51.6,30.18,North,0,1.0,2.0,57,0.00,,,0.00,meteohub,2013-04-26 23:37:00,
2013-04-26 16:42:00,68.5,53.2,30.18,West,270,0.0,2.0,58,0.00,,,0.00,meteohub,2013-04-26 23:42:00,
2013-04-26 16:47:00,66.6,51.3,30.18,West,270,1.0,3.0,58,0.00,,,0.00,meteohub,2013-04-26 23:47:00,
2013-04-26 16:52:00,69.6,53.2,30.17,West,270,2.0,3.0,56,0.00,,,0.00,meteohub,2013-04-26 23:52:00,
2013-04-26 17:05:00,70.0,53.1,30.18,West,270,1.0,2.0,55,0.00,,,0.00,meteohub,2013-04-27 00:05:00,
2013-04-26 17:10:00,69.6,52.7,30.17,WSW,248,2.0,4.0,55,0.00,,,0.00,meteohub,2013-04-27 00:10:00,
2013-04-26 17:15:00,70.2,53.2,30.17,West,270,0.0,4.0,55,0.00,,,0.00,meteohub,2013-04-27 00:15:00,
2013-04-26 17:20:00,69.6,52.7,30.16,West,270,1.0,4.0,55,0.00,,,0.00,meteohub,2013-04-27 00:20:00,
2013-04-26 17:25:00,69.8,52.9,30.16,North,0,0.0,2.0,55,0.00,,,0.00,meteohub,2013-04-27 00:25:00,
2013-04-26 17:30:00,70.3,53.4,30.17,North,-999,-999.0,2.0,55,0.00,,,0.00,meteohub,2013-04-27 00:30:00,
2013-04-26 17:35:00,70.0,52.5,30.17,North,-999,-999.0,1.0,54,0.00,,,0.00,meteohub,2013-04-27 00:35:00,
2013-04-26 17:40:00,69.6,51.8,30.17,North,-999,-999.0,0.0,53,0.00,,,0.00,meteohub,2013-04-27 00:40:00,
2013-04-26 17:45:00,68.5,51.3,30.17,North,0,2.0,2.0,54,0.00,,,0.00,meteohub,2013-04-27 00:45:00,
2013-04-26 17:50:00,67.5,51.3,30.16,North,-999,-999.0,2.0,56,0.00,,,0.00,meteohub,2013-04-27 00:50:00,
2013-04-26 17:55:00,68.7,53.4,30.16,North,-999,-999.0,2.0,58,0.00,,,0.00,meteohub,2013-04-27 00:55:00,
2013-04-26 18:00:00,66.0,50.9,30.16,North,0,0.0,-999.0,58,0.00,,,0.00,meteohub,2013-04-27 01:00:00,
2013-04-26 18:05:00,66.0,51.3,30.17,North,0,0.0,1.0,59,0.00,,,0.00,meteohub,2013-04-27 01:05:00,
2013-04-26 18:10:00,66.4,51.6,30.16,West,270,0.0,1.0,59,0.00,,,0.00,meteohub,2013-04-27 01:10:00,
2013-04-26 18:15:00,64.2,49.1,30.16,NNE,23,1.0,1.0,58,0.00,,,0.00,meteohub,2013-04-27 01:15:00,
2013-04-26 18:20:00,65.5,50.7,30.16,North,0,0.0,2.0,59,0.00,,,0.00,meteohub,2013-04-27 01:20:00,
2013-04-26 18:25:00,68.2,53.2,30.16,West,270,0.0,2.0,59,0.00,,,0.00,meteohub,2013-04-27 01:25:00,
2013-04-26 18:31:00,63.3,49.3,30.16,ENE,68,0.0,2.0,60,0.00,,,0.00,meteohub,2013-04-27 01:31:00,
2013-04-26 18:35:00,63.1,49.5,30.16,ENE,68,0.0,1.0,61,0.00,,,0.00,meteohub,2013-04-27 01:35:00,
2013-04-26 18:40:00,64.9,51.6,30.16,West,270,0.0,0.0,62,0.00,,,0.00,meteohub,2013-04-27 01:40:00,
2013-04-26 18:45:00,64.8,51.8,30.16,West,270,0.0,0.0,63,0.00,,,0.00,meteohub,2013-04-27 01:45:00,
2013-04-26 18:50:00,64.6,52.5,30.16,West,270,0.0,0.0,65,0.00,,,0.00,meteohub,2013-04-27 01:50:00,
2013-04-26 18:55:00,63.9,51.8,30.16,North,0,0.0,0.0,65,0.00,,,0.00,meteohub,2013-04-27 01:55:00,
2013-04-26 19:00:00,63.5,52.0,30.17,North,0,0.0,0.0,66,0.00,,,0.00,meteohub,2013-04-27 02:00:00,
2013-04-26 19:05:00,63.3,52.2,30.16,North,0,0.0,0.0,67,0.00,,,0.00,meteohub,2013-04-27 02:05:00,
2013-04-26 19:10:00,63.0,52.2,30.17,North,0,0.0,0.0,68,0.00,,,0.00,meteohub,2013-04-27 02:10:00,
2013-04-26 19:15:00,62.6,52.0,30.17,North,0,0.0,0.0,68,0.00,,,0.00,meteohub,2013-04-27 02:15:00,
2013-04-26 19:20:00,62.1,51.8,30.17,North,0,0.0,0.0,69,0.00,,,0.00,meteohub,2013-04-27 02:20:00,
2013-04-26 19:25:00,61.2,51.3,30.17,North,0,0.0,0.0,70,0.00,,,0.00,meteohub,2013-04-27 02:25:00,
2013-04-26 19:30:00,60.8,51.8,30.16,North,0,0.0,0.0,72,0.00,,,0.00,meteohub,2013-04-27 02:30:00,
2013-04-26 19:35:00,60.6,52.0,30.16,West,270,0.0,1.0,73,0.00,,,0.00,meteohub,2013-04-27 02:35:00,
2013-04-26 19:40:00,60.4,51.8,30.16,West,270,0.0,1.0,73,0.00,,,0.00,meteohub,2013-04-27 02:40:00,
2013-04-26 19:45:00,60.1,51.8,30.16,West,270,0.0,1.0,74,0.00,,,0.00,meteohub,2013-04-27 02:45:00,
2013-04-26 19:50:00,54.3,46.2,30.17,North,0,1.0,1.0,74,0.00,,,0.00,meteohub,2013-04-27 02:50:00,
2013-04-26 19:56:00,59.2,50.9,30.16,West,270,0.0,1.0,74,0.00,,,0.00,meteohub,2013-04-27 02:56:00,
2013-04-26 20:00:00,58.3,50.0,30.16,North,0,0.0,1.0,74,0.00,,,0.00,meteohub,2013-04-27 03:00:00,
2013-04-26 20:06:00,58.5,50.5,30.16,West,270,0.0,1.0,75,0.00,,,0.00,meteohub,2013-04-27 03:06:00,
2013-04-26 20:11:00,58.1,50.5,30.16,West,270,0.0,0.0,76,0.00,,,0.00,meteohub,2013-04-27 03:11:00,
2013-04-26 20:16:00,58.1,50.5,30.15,West,270,1.0,1.0,76,0.00,,,0.00,meteohub,2013-04-27 03:16:00,
2013-04-26 20:20:00,60.6,53.1,30.15,North,0,1.0,2.0,76,0.00,,,0.00,meteohub,2013-04-27 03:20:00,
2013-04-26 20:26:00,57.7,50.2,30.15,North,0,1.0,2.0,76,0.00,,,0.00,meteohub,2013-04-27 03:26:00,
2013-04-26 20:31:00,57.6,50.0,30.15,West,270,1.0,2.0,76,0.00,,,0.00,meteohub,2013-04-27 03:31:00,
2013-04-26 20:36:00,56.8,47.8,30.15,West,270,2.0,2.0,72,0.00,,,0.00,meteohub,2013-04-27 03:36:00,
2013-04-26 20:41:00,55.8,46.6,30.15,North,0,1.0,2.0,71,0.00,,,0.00,meteohub,2013-04-27 03:41:00,
2013-04-26 20:46:00,59.9,50.9,30.16,North,0,2.0,2.0,72,0.00,,,0.00,meteohub,2013-04-27 03:46:00,
2013-04-26 20:51:00,55.9,47.1,30.16,North,0,0.0,2.0,72,0.00,,,0.00,meteohub,2013-04-27 03:51:00,
2013-04-26 20:56:00,55.8,45.7,30.16,North,0,1.0,2.0,69,0.00,,,0.00,meteohub,2013-04-27 03:56:00,
2013-04-26 21:01:00,59.7,49.1,30.16,North,0,1.0,2.0,68,0.00,,,0.00,meteohub,2013-04-27 04:01:00,
2013-04-26 21:02:00,55.8,45.3,30.16,North,0,1.0,2.0,68,0.00,,,0.00,meteohub,2013-04-27 04:02:00,
2013-04-26 21:07:00,60.4,49.5,30.16,North,0,2.0,2.0,67,0.00,,,0.00,meteohub,2013-04-27 04:07:00,
2013-04-26 21:12:00,54.7,43.9,30.17,North,-999,-999.0,2.0,67,0.00,,,0.00,meteohub,2013-04-27 04:12:00,
2013-04-26 21:17:00,55.6,44.4,30.17,North,0,2.0,2.0,66,0.00,,,0.00,meteohub,2013-04-27 04:17:00,
2013-04-26 21:22:00,55.2,44.4,30.17,North,0,1.0,2.0,67,0.00,,,0.00,meteohub,2013-04-27 04:22:00,
2013-04-26 21:27:00,56.5,45.7,30.17,North,0,2.0,2.0,67,0.00,,,0.00,meteohub,2013-04-27 04:27:00,
2013-04-26 21:32:00,55.0,43.9,30.17,North,0,1.0,2.0,66,0.00,,,0.00,meteohub,2013-04-27 04:32:00,
2013-04-26 21:37:00,55.2,44.1,30.17,North,0,1.0,2.0,66,0.00,,,0.00,meteohub,2013-04-27 04:37:00,
2013-04-26 21:42:00,59.2,47.8,30.17,North,0,1.0,2.0,66,0.00,,,0.00,meteohub,2013-04-27 04:42:00,
2013-04-26 21:47:00,53.8,42.6,30.18,North,0,2.0,2.0,66,0.00,,,0.00,meteohub,2013-04-27 04:47:00,
2013-04-26 21:52:00,53.6,42.4,30.18,North,0,1.0,2.0,66,0.00,,,0.00,meteohub,2013-04-27 04:52:00,
2013-04-26 21:57:00,55.0,43.9,30.18,North,0,0.0,2.0,66,0.00,,,0.00,meteohub,2013-04-27 04:57:00,
2013-04-26 22:02:00,54.9,44.1,30.18,North,0,0.0,2.0,67,0.00,,,0.00,meteohub,2013-04-27 05:02:00,
2013-04-26 22:07:00,54.3,44.1,30.19,North,0,0.0,2.0,68,0.00,,,0.00,meteohub,2013-04-27 05:07:00,
2013-04-26 22:12:00,54.1,43.9,30.18,North,0,0.0,1.0,68,0.00,,,0.00,meteohub,2013-04-27 05:12:00,
2013-04-26 22:17:00,54.0,44.1,30.18,North,0,0.0,1.0,69,0.00,,,0.00,meteohub,2013-04-27 05:17:00,
2013-04-26 22:22:00,53.8,44.2,30.17,North,0,0.0,1.0,70,0.00,,,0.00,meteohub,2013-04-27 05:22:00,
2013-04-26 22:27:00,53.6,44.1,30.17,North,0,0.0,0.0,70,0.00,,,0.00,meteohub,2013-04-27 05:27:00,
2013-04-26 22:32:00,54.7,45.1,30.18,North,0,0.0,0.0,70,0.00,,,0.00,meteohub,2013-04-27 05:32:00,
2013-04-26 22:37:00,54.5,45.0,30.18,North,-999,-999.0,0.0,70,0.00,,,0.00,meteohub,2013-04-27 05:37:00,
2013-04-26 22:42:00,57.7,48.0,30.18,North,0,1.0,1.0,70,0.00,,,0.00,meteohub,2013-04-27 05:42:00,
2013-04-26 22:47:00,53.4,43.9,30.18,North,0,0.0,2.0,70,0.00,,,0.00,meteohub,2013-04-27 05:47:00,
2013-04-26 22:52:00,52.9,43.3,30.18,North,0,1.0,2.0,70,0.00,,,0.00,meteohub,2013-04-27 05:52:00,
2013-04-26 22:57:00,54.1,44.6,30.18,West,270,0.0,2.0,70,0.00,,,0.00,meteohub,2013-04-27 05:57:00,
2013-04-26 23:02:00,53.8,45.0,30.18,West,270,0.0,1.0,72,0.00,,,0.00,meteohub,2013-04-27 06:02:00,
2013-04-26 23:07:00,53.4,44.6,30.17,West,270,0.0,1.0,72,0.00,,,0.00,meteohub,2013-04-27 06:07:00,
2013-04-26 23:12:00,53.2,44.4,30.17,West,270,0.0,0.0,72,0.00,,,0.00,meteohub,2013-04-27 06:12:00,
2013-04-26 23:17:00,53.1,44.6,30.17,West,270,0.0,0.0,73,0.00,,,0.00,meteohub,2013-04-27 06:17:00,
2013-04-26 23:22:00,52.9,44.4,30.17,West,270,0.0,0.0,73,0.00,,,0.00,meteohub,2013-04-27 06:22:00,
2013-04-26 23:27:00,52.7,44.2,30.17,West,270,0.0,0.0,73,0.00,,,0.00,meteohub,2013-04-27 06:27:00,
2013-04-26 23:32:00,52.5,44.1,30.17,West,270,0.0,0.0,73,0.00,,,0.00,meteohub,2013-04-27 06:32:00,
2013-04-26 23:37:00,52.9,44.8,30.17,West,270,0.0,0.0,74,0.00,,,0.00,meteohub,2013-04-27 06:37:00,
2013-04-26 23:42:00,52.9,44.8,30.17,West,270,0.0,0.0,74,0.00,,,0.00,meteohub,2013-04-27 06:42:00,
2013-04-26 23:47:00,52.7,45.0,30.17,West,270,0.0,0.0,75,0.00,,,0.00,meteohub,2013-04-27 06:47:00,
2013-04-26 23:52:00,52.5,44.8,30.16,West,270,0.0,0.0,75,0.00,,,0.00,meteohub,2013-04-27 06:52:00,
2013-04-26 23:57:00,52.5,44.8,30.16,West,270,0.0,0.0,75,0.00,,,0.00,meteohub,2013-04-27 06:57:00,